createdAt,value
2019-02-09T00:02:32.005Z,99.90
2019-02-09T00:05:52.797Z,99.90
2019-02-09T00:08:27.557Z,99.90
2019-02-09T00:11:00.411Z,99.90
2019-02-09T00:13:37.642Z,99.90
2019-02-09T00:20:17.335Z,99.90
2019-02-09T00:22:50.488Z,99.90
2019-02-09T00:26:08.595Z,99.90
2019-02-09T00:28:44.127Z,99.90
2019-02-09T00:31:19.906Z,99.90
2019-02-09T00:37:20.857Z,99.90
2019-02-09T00:39:55.030Z,99.90
2019-02-09T00:42:29.786Z,99.90
2019-02-09T00:45:04.467Z,99.90
2019-02-09T00:51:37.715Z,99.90
2019-02-09T00:58:09.495Z,99.90
2019-02-09T01:00:42.138Z,99.90
2019-02-09T01:03:14.552Z,99.90
2019-02-09T01:05:47.768Z,99.90
2019-02-09T01:08:19.700Z,99.90
2019-02-09T01:10:51.124Z,99.90
2019-02-09T01:13:22.529Z,99.90
2019-02-09T01:15:54.251Z,99.90
2019-02-09T01:18:25.910Z,99.90
2019-02-09T01:20:57.461Z,99.90
2019-02-09T01:23:28.956Z,99.90
2019-02-09T01:26:00.462Z,99.90
2019-02-09T01:28:31.793Z,99.90
2019-02-09T01:31:03.273Z,99.90
2019-02-09T01:33:34.888Z,99.90
2019-02-09T01:36:06.344Z,99.90
2019-02-09T01:38:37.676Z,99.90
2019-02-09T01:41:08.913Z,99.90
2019-02-09T01:43:40.050Z,99.90
2019-02-09T01:46:11.745Z,99.90
2019-02-09T01:48:42.981Z,99.90
2019-02-09T01:51:14.328Z,99.90
2019-02-09T01:53:45.691Z,99.90
2019-02-09T01:56:16.938Z,99.90
2019-02-09T01:58:48.266Z,99.90
2019-02-09T02:01:19.627Z,99.90
2019-02-09T02:03:51.315Z,99.90
2019-02-09T02:06:23.109Z,99.90
2019-02-09T02:08:54.628Z,99.90
2019-02-09T02:11:26.117Z,99.90
2019-02-09T02:13:57.493Z,99.90
2019-02-09T02:16:28.868Z,99.90
2019-02-09T02:19:00.272Z,99.90
2019-02-09T02:21:31.940Z,99.90
2019-02-09T02:24:03.345Z,99.90
2019-02-09T02:26:34.815Z,99.90
2019-02-09T02:29:06.418Z,99.90
2019-02-09T02:31:37.887Z,99.90
2019-02-09T02:34:09.273Z,99.90
2019-02-09T02:36:40.743Z,99.90
2019-02-09T02:39:13.070Z,99.90
2019-02-09T02:41:44.535Z,99.90
2019-02-09T02:44:16.165Z,99.90
2019-02-09T02:46:47.631Z,99.90
2019-02-09T02:49:18.970Z,99.90
2019-02-09T02:51:50.437Z,99.90
2019-02-09T02:54:21.696Z,99.90
2019-02-09T02:56:53.073Z,99.90
2019-02-09T02:59:24.526Z,99.90
2019-02-09T03:01:55.827Z,99.90
2019-02-09T03:04:27.253Z,99.90
2019-02-09T03:06:58.571Z,99.90
2019-02-09T03:09:29.896Z,99.90
2019-02-09T03:12:01.375Z,99.90
2019-02-09T03:14:33.069Z,99.90
2019-02-09T03:17:04.753Z,99.90
2019-02-09T03:19:36.188Z,99.90
2019-02-09T03:22:07.546Z,99.90
2019-02-09T03:24:38.880Z,99.90
2019-02-09T03:27:10.247Z,99.90
2019-02-09T03:29:41.776Z,99.90
2019-02-09T03:32:13.057Z,99.90
2019-02-09T03:34:44.410Z,99.90
2019-02-09T03:37:15.865Z,99.90
2019-02-09T03:39:47.180Z,99.90
2019-02-09T03:42:18.475Z,99.90
2019-02-09T03:44:49.803Z,99.90
2019-02-09T03:47:21.882Z,99.90
2019-02-09T03:49:53.146Z,99.90
2019-02-09T03:52:24.505Z,99.90
2019-02-09T03:54:55.863Z,99.90
2019-02-09T03:57:27.112Z,99.90
2019-02-09T03:59:58.438Z,99.90
2019-02-09T04:02:29.864Z,99.90
2019-02-09T04:05:01.236Z,99.90
2019-02-09T04:07:32.457Z,99.90
2019-02-09T04:10:03.911Z,99.90
2019-02-09T04:12:35.228Z,99.90
2019-02-09T04:15:08.497Z,99.90
2019-02-09T04:17:39.930Z,99.90
2019-02-09T04:20:14.064Z,99.90
2019-02-09T04:22:45.524Z,99.90
2019-02-09T04:25:18.770Z,99.90
2019-02-09T04:27:51.437Z,99.90
2019-02-09T04:30:33.349Z,99.90
2019-02-09T04:33:04.747Z,99.90
2019-02-09T04:35:36.156Z,99.90
2019-02-09T04:38:07.476Z,99.90
2019-02-09T04:40:38.852Z,99.90
2019-02-09T04:43:10.180Z,99.90
2019-02-09T04:45:41.577Z,99.90
2019-02-09T04:48:12.870Z,99.90
2019-02-09T04:50:44.240Z,99.90
2019-02-09T04:53:15.565Z,99.90
2019-02-09T04:55:50.033Z,99.90
2019-02-09T04:58:21.514Z,99.90
2019-02-09T05:00:52.833Z,99.90
2019-02-09T05:03:24.251Z,99.90
2019-02-09T05:05:55.803Z,99.90
2019-02-09T05:08:27.276Z,99.90
2019-02-09T05:10:58.672Z,99.90
2019-02-09T05:13:30.079Z,99.90
2019-02-09T05:16:01.421Z,99.90
2019-02-09T05:18:32.932Z,99.90
2019-02-09T05:21:04.534Z,99.90
2019-02-09T05:23:35.978Z,99.90
2019-02-09T05:26:08.684Z,99.90
2019-02-09T05:28:39.999Z,99.90
2019-02-09T05:31:12.300Z,99.90
2019-02-09T05:33:43.688Z,99.90
2019-02-09T05:36:15.225Z,99.90
2019-02-09T05:38:46.826Z,99.90
2019-02-09T05:41:18.513Z,99.90
2019-02-09T05:43:49.966Z,99.90
2019-02-09T05:46:21.350Z,99.90
2019-02-09T05:48:52.985Z,99.90
2019-02-09T05:51:27.596Z,99.90
2019-02-09T05:53:59.157Z,99.90
2019-02-09T05:56:30.683Z,99.90
2019-02-09T05:59:02.061Z,99.90
2019-02-09T06:01:33.597Z,99.90
2019-02-09T06:04:05.223Z,99.90
2019-02-09T06:06:37.291Z,99.90
2019-02-09T06:09:10.437Z,99.90
2019-02-09T06:11:41.965Z,99.90
2019-02-09T06:14:13.510Z,99.90
2019-02-09T06:16:44.766Z,99.90
2019-02-09T06:19:16.204Z,99.90
2019-02-09T06:21:47.609Z,99.90
2019-02-09T06:24:18.854Z,99.90
2019-02-09T06:26:50.171Z,99.90
2019-02-09T06:29:21.567Z,99.90
2019-02-09T06:31:53.003Z,99.90
2019-02-09T06:34:24.609Z,99.90
2019-02-09T06:36:56.118Z,99.90
2019-02-09T06:39:27.521Z,99.90
2019-02-09T06:41:58.807Z,99.90
2019-02-09T06:44:30.225Z,99.90
2019-02-09T06:47:01.726Z,99.90
2019-02-09T06:49:33.037Z,99.90
2019-02-09T06:52:04.454Z,99.90
2019-02-09T06:54:36.027Z,99.90
2019-02-09T06:57:07.798Z,99.90
2019-02-09T06:59:39.266Z,99.90
2019-02-09T07:02:10.558Z,99.90
2019-02-09T07:04:41.924Z,99.90
2019-02-09T07:07:13.328Z,99.90
2019-02-09T07:09:44.636Z,99.90
2019-02-09T07:12:16.308Z,99.90
2019-02-09T07:14:47.728Z,99.90
2019-02-09T07:17:19.318Z,99.90
2019-02-09T07:19:50.713Z,99.90
2019-02-09T07:22:22.206Z,99.90
2019-02-09T07:24:55.084Z,99.90
2019-02-09T07:27:26.643Z,99.90
2019-02-09T07:29:58.023Z,99.90
2019-02-09T07:32:29.330Z,99.90
2019-02-09T07:35:00.767Z,99.90
2019-02-09T07:37:32.341Z,99.90
2019-02-09T07:40:04.210Z,99.90
2019-02-09T07:42:35.682Z,99.90
2019-02-09T07:45:10.005Z,99.90
2019-02-09T07:47:41.485Z,99.90
2019-02-09T07:50:15.268Z,99.90
2019-02-09T07:52:47.398Z,99.90
2019-02-09T07:55:19.301Z,99.90
2019-02-09T08:21:29.517Z,99.90
2019-02-09T08:24:01.527Z,99.90
2019-02-09T08:26:33.446Z,99.90
2019-02-09T08:29:05.518Z,99.90
2019-02-09T08:31:37.535Z,99.90
2019-02-09T08:34:09.659Z,99.90
2019-02-09T08:36:41.785Z,99.90
2019-02-09T08:39:14.278Z,99.90
2019-02-09T08:41:46.330Z,99.90
2019-02-09T08:44:18.570Z,99.90
2019-02-09T08:46:50.425Z,99.90
2019-02-09T08:49:22.668Z,99.90
2019-02-09T08:51:55.004Z,99.90
2019-02-09T08:54:27.079Z,99.90
2019-02-09T08:56:59.697Z,99.90
2019-02-09T08:59:31.973Z,99.90
2019-02-09T09:02:05.106Z,99.90
2019-02-09T09:04:37.916Z,99.90
2019-02-09T09:07:10.228Z,99.90
2019-02-09T09:09:43.907Z,99.90
2019-02-09T09:12:15.706Z,99.90
2019-02-09T09:14:48.542Z,99.90
2019-02-09T09:17:20.605Z,99.90
2019-02-09T09:19:52.773Z,99.90
2019-02-09T09:22:24.549Z,99.90
2019-02-09T09:24:56.735Z,99.90
2019-02-09T09:27:30.190Z,99.90
2019-02-09T09:30:02.802Z,99.90
2019-02-09T09:32:34.824Z,99.90
2019-02-09T09:35:06.943Z,99.90
2019-02-09T09:37:39.005Z,99.90
2019-02-09T09:40:16.908Z,99.90
2019-02-09T09:42:49.460Z,99.90
2019-02-09T09:45:28.330Z,99.90
2019-02-09T09:48:00.536Z,99.90
2019-02-09T09:50:33.120Z,99.90
2019-02-09T09:53:06.538Z,99.90
2019-02-09T09:55:38.933Z,99.90
2019-02-09T09:58:11.392Z,99.90
2019-02-09T10:00:44.048Z,99.90
2019-02-09T10:03:16.575Z,99.00
2019-02-09T10:05:48.636Z,98.60
2019-02-09T10:08:21.862Z,98.40
2019-02-09T10:10:53.846Z,98.10
2019-02-09T10:13:26.029Z,95.70
2019-02-09T10:15:57.921Z,94.50
2019-02-09T10:18:30.510Z,93.80
2019-02-09T10:21:02.782Z,92.70
2019-02-09T10:23:35.407Z,92.00
2019-02-09T10:26:16.084Z,91.10
2019-02-09T10:28:48.554Z,90.90
2019-02-09T10:31:20.722Z,90.30
2019-02-09T10:33:52.636Z,89.80
2019-02-09T10:36:25.046Z,88.70
2019-02-09T10:38:57.206Z,89.20
2019-02-09T10:41:29.440Z,87.20
2019-02-09T10:44:01.535Z,88.60
2019-02-09T10:46:33.917Z,87.20
2019-02-09T10:49:06.075Z,86.80
2019-02-09T10:51:38.051Z,87.20
2019-02-09T10:54:16.632Z,87.80
2019-02-09T10:56:48.847Z,88.10
2019-02-09T10:59:20.698Z,88.20
2019-02-09T11:01:53.208Z,86.60
2019-02-09T11:04:25.433Z,87.20
2019-02-09T11:06:57.549Z,85.30
2019-02-09T11:09:29.956Z,86.30
2019-02-09T11:12:02.508Z,84.00
2019-02-09T11:14:34.987Z,82.70
2019-02-09T11:17:08.166Z,82.50
2019-02-09T11:19:40.903Z,81.00
2019-02-09T11:22:14.549Z,79.10
2019-02-09T11:24:46.607Z,77.60
2019-02-09T11:27:19.649Z,77.00
2019-02-09T11:29:51.608Z,80.40
2019-02-09T11:32:24.496Z,82.30
2019-02-09T11:34:56.345Z,82.20
2019-02-09T11:37:29.849Z,81.10
2019-02-09T11:40:01.729Z,79.90
2019-02-09T11:42:34.547Z,79.30
2019-02-09T11:45:08.205Z,76.40
2019-02-09T11:47:43.192Z,77.00
2019-02-09T11:50:15.421Z,77.60
2019-02-09T11:52:47.258Z,76.70
2019-02-09T11:55:19.442Z,73.20
2019-02-09T11:57:51.965Z,71.70
2019-02-09T12:00:29.755Z,71.80
2019-02-09T12:03:05.496Z,69.60
2019-02-09T12:05:35.209Z,69.30
2019-02-09T12:08:07.968Z,70.00
2019-02-09T12:10:40.145Z,69.60
2019-02-09T12:13:12.390Z,69.20
2019-02-09T12:15:44.522Z,69.00
2019-02-09T12:18:16.308Z,67.80
2019-02-09T12:20:48.028Z,66.40
2019-02-09T12:23:22.961Z,65.70
2019-02-09T12:25:55.473Z,64.70
2019-02-09T12:28:27.394Z,65.00
2019-02-09T12:30:59.544Z,63.60
2019-02-09T12:33:31.542Z,65.30
2019-02-09T12:36:03.930Z,66.20
2019-02-09T12:38:36.737Z,64.50
2019-02-09T12:41:08.880Z,64.90
2019-02-09T12:43:41.780Z,65.00
2019-02-09T12:46:14.398Z,66.70
2019-02-09T12:48:47.661Z,68.40
2019-02-09T12:51:24.078Z,67.50
2019-02-09T12:53:56.734Z,67.80
2019-02-09T12:56:28.518Z,68.00
2019-02-09T12:59:01.209Z,69.10
2019-02-09T13:01:33.419Z,68.90
2019-02-09T13:04:07.483Z,68.00
2019-02-09T13:06:39.521Z,70.50
2019-02-09T13:09:13.678Z,69.70
2019-02-09T13:11:45.625Z,70.00
2019-02-09T13:14:20.257Z,69.50
2019-02-09T13:16:52.093Z,68.20
2019-02-09T13:19:25.499Z,68.00
2019-02-09T13:21:57.290Z,66.50
2019-02-09T13:24:29.298Z,67.80
2019-02-09T13:27:01.927Z,67.60
2019-02-09T13:29:33.911Z,69.70
2019-02-09T13:32:06.132Z,70.70
2019-02-09T13:34:38.944Z,72.00
2019-02-09T13:37:10.853Z,73.10
2019-02-09T13:39:42.705Z,73.60
2019-02-09T13:42:14.677Z,73.10
2019-02-09T13:44:46.864Z,71.80
2019-02-09T13:47:19.190Z,70.60
2019-02-09T13:50:01.980Z,71.20
2019-02-09T13:52:34.386Z,71.70
2019-02-09T13:55:13.573Z,70.90
2019-02-09T13:57:45.634Z,69.90
2019-02-09T14:00:21.223Z,69.70
2019-02-09T14:02:53.573Z,69.60
2019-02-09T14:05:25.916Z,69.80
2019-02-09T14:07:57.629Z,70.20
2019-02-09T14:10:30.255Z,70.30
2019-02-09T14:13:01.954Z,70.20
2019-02-09T14:15:34.973Z,70.70
2019-02-09T14:18:09.681Z,70.90
2019-02-09T14:20:41.907Z,70.50
2019-02-09T14:23:14.057Z,71.80
2019-02-09T14:25:47.218Z,71.90
2019-02-09T14:28:22.515Z,72.60
2019-02-09T14:30:55.691Z,72.00
2019-02-09T14:33:27.542Z,71.30
2019-02-09T14:35:59.664Z,71.60
2019-02-09T14:38:32.053Z,71.70
2019-02-09T14:41:04.072Z,73.20
2019-02-09T14:43:36.093Z,73.30
2019-02-09T14:46:08.288Z,74.40
2019-02-09T14:48:40.316Z,75.10
2019-02-09T14:51:12.679Z,75.50
2019-02-09T14:53:44.594Z,76.30
2019-02-09T14:56:16.379Z,76.90
2019-02-09T14:58:48.222Z,77.80
2019-02-09T15:01:24.196Z,76.90
2019-02-09T15:04:02.594Z,76.90
2019-02-09T15:06:31.351Z,77.70
2019-02-09T15:09:04.811Z,78.30
2019-02-09T15:11:36.905Z,78.40
2019-02-09T15:14:08.779Z,78.00
2019-02-09T15:16:48.316Z,78.80
2019-02-09T15:19:23.854Z,79.00
2019-02-09T15:21:56.201Z,79.20
2019-02-09T15:24:28.318Z,79.90
2019-02-09T15:27:08.238Z,80.50
2019-02-09T15:29:40.175Z,81.40
2019-02-09T15:32:12.732Z,82.40
2019-02-09T15:34:44.897Z,83.60
2019-02-09T15:37:17.280Z,84.30
2019-02-09T15:39:50.396Z,85.30
2019-02-09T15:42:24.073Z,86.20
2019-02-09T15:44:57.727Z,87.30
2019-02-09T15:47:30.019Z,88.40
2019-02-09T15:50:01.899Z,89.60
2019-02-09T15:52:34.372Z,90.20
2019-02-09T15:55:07.999Z,91.00
2019-02-09T15:57:39.964Z,91.40
2019-02-09T16:00:19.744Z,91.80
2019-02-09T16:02:54.343Z,92.60
2019-02-09T16:05:27.195Z,92.70
2019-02-09T16:07:59.534Z,93.20
2019-02-09T16:10:38.357Z,93.20
2019-02-09T16:13:10.861Z,93.70
2019-02-09T16:15:49.320Z,94.00
2019-02-09T16:18:22.464Z,95.00
2019-02-09T16:20:59.187Z,95.30
2019-02-09T16:23:33.444Z,95.50
2019-02-09T16:26:07.365Z,96.10
2019-02-09T16:28:42.477Z,96.60
2019-02-09T16:31:15.757Z,97.10
2019-02-09T16:33:49.586Z,97.70
2019-02-09T16:36:23.984Z,98.20
2019-02-09T16:38:57.983Z,98.80
2019-02-09T16:41:31.516Z,99.30
2019-02-09T16:44:05.902Z,99.90
2019-02-09T16:46:39.778Z,99.90
2019-02-09T16:49:16.838Z,99.90
2019-02-09T16:51:53.117Z,99.90
2019-02-09T16:54:31.050Z,99.90
2019-02-09T16:57:04.563Z,99.90
2019-02-09T16:59:39.605Z,99.90
2019-02-09T17:02:31.586Z,99.90
2019-02-09T17:05:05.894Z,99.90
2019-02-09T17:07:40.015Z,99.90
2019-02-09T17:10:15.027Z,99.90
2019-02-09T17:12:48.841Z,99.90
2019-02-09T17:15:27.959Z,99.90
2019-02-09T17:18:01.754Z,99.90
2019-02-09T17:20:35.482Z,99.90
2019-02-09T17:23:10.403Z,99.90
2019-02-09T17:25:44.127Z,99.90
2019-02-09T17:28:18.140Z,99.90
2019-02-09T17:30:51.698Z,99.90
2019-02-09T17:33:25.281Z,99.90
2019-02-09T17:35:59.833Z,99.90
2019-02-09T17:38:33.749Z,99.90
2019-02-09T17:41:10.349Z,99.90
2019-02-09T17:43:46.894Z,99.90
2019-02-09T17:46:21.000Z,99.90
2019-02-09T17:48:54.634Z,99.90
2019-02-09T17:51:28.722Z,99.90
2019-02-09T17:54:02.939Z,99.90
2019-02-09T17:56:38.880Z,99.90
2019-02-09T17:59:12.772Z,99.90
2019-02-09T18:01:47.344Z,99.90
2019-02-09T18:04:21.743Z,99.90
2019-02-09T18:06:55.070Z,99.90
2019-02-09T18:09:28.614Z,99.90
2019-02-09T18:12:02.204Z,99.90
2019-02-09T18:14:38.684Z,99.90
2019-02-09T18:17:12.784Z,99.90
2019-02-09T18:19:46.496Z,99.90
2019-02-09T18:22:20.458Z,99.90
2019-02-09T18:24:54.038Z,99.90
2019-02-09T18:27:27.956Z,99.90
2019-02-09T18:30:01.624Z,99.90
2019-02-09T18:32:35.892Z,99.90
2019-02-09T18:35:09.946Z,99.90
2019-02-09T18:37:43.616Z,99.90
2019-02-09T18:40:22.287Z,99.90
2019-02-09T18:42:56.922Z,99.90
2019-02-09T18:45:30.820Z,99.90
2019-02-09T18:48:08.087Z,99.90
2019-02-09T18:50:41.915Z,99.90
2019-02-09T18:53:18.795Z,99.90
2019-02-09T18:55:52.079Z,99.90
2019-02-09T18:58:25.932Z,99.90
2019-02-09T19:01:07.724Z,99.90
2019-02-09T19:03:41.174Z,99.90
2019-02-09T19:06:14.524Z,99.90
2019-02-09T19:08:48.513Z,99.90
2019-02-09T19:11:21.970Z,99.90
2019-02-09T19:13:58.721Z,99.90
2019-02-09T19:16:32.562Z,99.90
2019-02-09T19:19:08.932Z,99.90
2019-02-09T19:21:42.554Z,99.90
2019-02-09T19:24:16.691Z,99.90
2019-02-09T19:26:50.341Z,99.90
2019-02-09T19:29:24.459Z,99.90
2019-02-09T19:31:59.030Z,99.90
2019-02-09T19:34:34.838Z,99.90
2019-02-09T19:37:10.137Z,99.90
2019-02-09T19:39:44.983Z,99.90
2019-02-09T19:42:19.414Z,99.90
2019-02-09T19:44:53.347Z,99.90
2019-02-09T19:47:27.169Z,99.90
2019-02-09T19:50:01.586Z,99.90
2019-02-09T19:52:35.684Z,99.90
2019-02-09T19:55:15.253Z,99.90
2019-02-09T19:57:49.517Z,99.90
2019-02-09T20:00:26.634Z,99.90
2019-02-09T20:03:01.644Z,99.90
2019-02-09T20:05:35.603Z,99.90
2019-02-09T20:08:10.920Z,99.90
2019-02-09T20:10:45.044Z,99.90
2019-02-09T20:13:20.683Z,99.90
2019-02-09T20:15:55.187Z,99.90
2019-02-09T20:18:32.371Z,99.90
2019-02-09T20:21:07.394Z,99.90
2019-02-09T20:23:42.093Z,99.90
2019-02-09T20:26:16.236Z,99.90
2019-02-09T20:28:49.923Z,99.90
2019-02-09T20:31:24.991Z,99.90
2019-02-09T20:33:59.539Z,99.90
2019-02-09T20:36:41.077Z,99.90
2019-02-09T20:39:22.408Z,99.90
2019-02-09T20:41:56.242Z,99.90
2019-02-09T20:44:30.644Z,99.90
2019-02-09T20:47:04.522Z,99.90
2019-02-09T20:49:38.048Z,99.90
2019-02-09T20:52:12.765Z,99.90
2019-02-09T20:54:47.029Z,99.90
2019-02-09T20:57:20.814Z,99.90
2019-02-09T20:59:57.233Z,99.90
2019-02-09T21:02:31.026Z,99.90
2019-02-09T21:05:11.423Z,99.90
2019-02-09T21:07:44.968Z,99.90
2019-02-09T21:10:26.673Z,99.90
2019-02-09T21:13:01.343Z,99.90
2019-02-09T21:15:36.026Z,99.90
2019-02-09T21:18:10.965Z,99.90
2019-02-09T21:20:45.313Z,99.90
2019-02-09T21:23:27.177Z,99.90
2019-02-09T21:26:00.715Z,99.90
2019-02-09T21:28:35.238Z,99.90
2019-02-09T21:31:12.491Z,99.90
2019-02-09T21:33:46.475Z,99.90
2019-02-09T21:36:19.834Z,99.90
2019-02-09T21:38:54.149Z,99.90
2019-02-09T21:41:27.488Z,99.90
2019-02-09T21:44:01.614Z,99.90
2019-02-09T21:46:45.776Z,99.90
2019-02-09T21:49:19.368Z,99.90
2019-02-09T21:51:53.300Z,99.90
2019-02-09T21:54:26.585Z,99.90
2019-02-09T21:57:00.079Z,99.90
2019-02-09T21:59:33.955Z,99.90
2019-02-09T22:02:07.691Z,99.90
2019-02-09T22:04:41.656Z,99.90
2019-02-09T22:07:14.965Z,99.90
2019-02-09T22:09:48.674Z,99.90
2019-02-09T22:12:21.803Z,99.90
2019-02-09T22:14:54.917Z,99.90
2019-02-09T22:17:27.785Z,99.90
2019-02-09T22:20:00.660Z,99.90
2019-02-09T22:22:33.671Z,99.90
2019-02-09T22:25:07.172Z,99.90
2019-02-09T22:27:40.213Z,99.90
2019-02-09T22:30:15.770Z,99.90
2019-02-09T22:32:48.451Z,99.90
2019-02-09T22:35:21.130Z,99.90
2019-02-09T22:37:53.470Z,99.90
2019-02-09T22:40:31.254Z,99.90
2019-02-09T22:43:03.597Z,99.90
2019-02-09T22:45:35.952Z,99.90
2019-02-09T22:48:09.821Z,99.90
2019-02-09T22:50:45.308Z,99.90
2019-02-09T22:53:17.334Z,99.90
2019-02-09T22:55:49.126Z,99.90
2019-02-09T22:58:21.226Z,99.90
2019-02-09T23:01:39.150Z,99.90
2019-02-09T23:05:13.479Z,99.90
2019-02-09T23:07:45.341Z,99.90
2019-02-09T23:10:17.652Z,99.90
2019-02-09T23:12:54.020Z,99.90
2019-02-09T23:15:25.987Z,99.90
2019-02-09T23:17:57.713Z,99.90
2019-02-09T23:20:29.779Z,99.90
2019-02-09T23:23:02.016Z,99.90
2019-02-09T23:25:33.901Z,99.90
2019-02-09T23:28:05.708Z,99.90
2019-02-09T23:30:37.716Z,99.90
2019-02-09T23:33:09.583Z,99.90
2019-02-09T23:35:41.747Z,99.90
2019-02-09T23:38:13.603Z,99.90
2019-02-09T23:40:48.156Z,99.90
2019-02-09T23:43:26.175Z,99.90
2019-02-09T23:46:00.079Z,99.90
2019-02-09T23:48:36.891Z,99.90
2019-02-09T23:51:13.053Z,99.90
2019-02-09T23:53:50.836Z,99.90
2019-02-09T23:56:25.542Z,99.90
2019-02-09T23:59:02.151Z,99.90
